Adak Island, Alaska
Current Conditions -  °F | °C
As of 2:16 AM on Friday 19 Dec 2014 (Local Time) from PADK Reporting Station
Overcast Overcast  
Wind Chill: 26°   Ceiling: 1400
Heat Index: 37°   Visibility: 10mi
Dew Point: 34°   Wind: 26mph
Humidity: 87%   Direction: 30°NNE
Pressure: 28.58"   Gusts: 32mph
Location:  51.88°N, 176.65°W
Report Text: PADK 191116Z AUTO 03023G28KT 10SM BKN014 OVC020 03/01 A2858 RMK AO1
Loading
Personal Weather Stations






























Interactive Weather Map New forecast layout! Learn more

10-Day Weather Forecast

Advertisements
Track Severe Weather on mobile